createdAt,value
2018-02-24T00:01:11.606Z,100234
2018-02-24T00:06:14.897Z,100238
2018-02-24T00:11:22.473Z,100236
2018-02-24T00:16:26.906Z,100229
2018-02-24T00:21:32.002Z,100225
2018-02-24T00:26:35.837Z,100217
2018-02-24T00:31:42.468Z,100215
2018-02-24T00:36:45.725Z,100212
2018-02-24T00:41:51.149Z,100203
2018-02-24T00:46:54.665Z,100195
2018-02-24T00:52:02.017Z,100188
2018-02-24T00:57:05.419Z,100175
2018-02-24T01:02:08.952Z,100166
2018-02-24T01:07:12.255Z,100166
2018-02-24T01:12:16.958Z,100160
2018-02-24T01:17:20.701Z,100148
2018-02-24T01:22:27.067Z,100149
2018-02-24T01:27:30.901Z,100151
2018-02-24T01:32:38.742Z,100141
2018-02-24T01:37:42.965Z,100145
2018-02-24T01:42:49.933Z,100137
2018-02-24T01:47:53.301Z,100126
2018-02-24T01:53:01.078Z,100124
2018-02-24T01:58:05.229Z,100116
2018-02-24T02:03:12.866Z,100110
2018-02-24T02:08:16.989Z,100101
2018-02-24T02:13:23.497Z,100100
2018-02-24T02:18:26.998Z,100093
2018-02-24T02:23:31.626Z,100086
2018-02-24T02:28:35.392Z,100089
2018-02-24T02:33:43.992Z,100088
2018-02-24T02:38:47.366Z,100088
2018-02-24T02:43:54.098Z,100085
2018-02-24T02:48:58.166Z,100088
2018-02-24T02:54:02.731Z,100085
2018-02-24T02:59:06.283Z,100087
2018-02-24T03:04:12.857Z,100075
2018-02-24T03:09:16.207Z,100074
2018-02-24T03:14:22.745Z,100064
2018-02-24T03:19:26.264Z,100062
2018-02-24T03:24:34.046Z,100058
2018-02-24T03:29:38.348Z,100052
2018-02-24T03:34:41.929Z,100047
2018-02-24T03:39:45.657Z,100031
2018-02-24T03:44:49.129Z,100035
2018-02-24T03:49:54.324Z,100036
2018-02-24T03:54:58.362Z,100040
2018-02-24T04:00:02.797Z,100042
2018-02-24T04:05:06.904Z,100035
2018-02-24T04:10:10.994Z,100044
2018-02-24T04:15:14.423Z,100046
2018-02-24T04:20:20.951Z,100049
2018-02-24T04:25:24.326Z,100050
2018-02-24T04:30:27.769Z,100037
2018-02-24T04:35:32.162Z,100044
2018-02-24T04:40:36.033Z,100034
2018-02-24T04:45:40.384Z,100026
2018-02-24T04:50:44.778Z,100025
2018-02-24T04:55:48.282Z,100021
2018-02-24T05:00:52.025Z,100013
2018-02-24T05:05:55.320Z,100005
2018-02-24T05:10:58.968Z,100002
2018-02-24T05:16:02.533Z,100009
2018-02-24T05:21:07.272Z,100006
2018-02-24T05:26:11.414Z,100008
2018-02-24T05:31:15.305Z,100007
2018-02-24T05:36:18.646Z,100009
2018-02-24T05:41:22.264Z,100009
2018-02-24T05:46:25.709Z,100007
2018-02-24T05:51:30.182Z,100014
2018-02-24T05:56:33.710Z,100014
2018-02-24T06:01:37.264Z,100014
2018-02-24T06:06:41.526Z,100025
2018-02-24T06:11:49.293Z,100014
2018-02-24T06:16:52.639Z,100016
2018-02-24T06:21:57.120Z,100011
2018-02-24T06:27:01.323Z,100005
2018-02-24T06:32:06.449Z,100003
2018-02-24T06:37:10.405Z,99998
2018-02-24T06:42:14.661Z,100006
2018-02-24T06:47:18.916Z,100002
2018-02-24T06:52:25.664Z,99996
2018-02-24T06:57:30.220Z,100001
2018-02-24T07:02:35.447Z,99994
2018-02-24T07:07:39.085Z,99999
2018-02-24T07:12:45.717Z,99999
2018-02-24T07:17:49.025Z,100002
2018-02-24T07:22:52.468Z,100011
2018-02-24T07:27:56.094Z,100013
2018-02-24T07:32:59.496Z,100014
2018-02-24T07:38:02.983Z,100006
2018-02-24T07:43:09.513Z,100007
2018-02-24T07:48:13.318Z,100004
2018-02-24T07:53:18.142Z,100000
2018-02-24T07:58:21.905Z,99986
2018-02-24T08:03:26.162Z,99990
2018-02-24T08:08:29.618Z,99985
2018-02-24T08:13:36.193Z,99978
2018-02-24T08:18:39.651Z,99976
2018-02-24T08:23:46.218Z,99975
2018-02-24T08:28:50.641Z,99966
2018-02-24T08:33:54.916Z,99970
2018-02-24T08:39:07.846Z,99955
2018-02-24T08:44:12.158Z,99948
2018-02-24T08:49:19.974Z,99940
2018-02-24T08:54:23.315Z,99932
2018-02-24T08:59:32.053Z,99934
2018-02-24T09:04:36.208Z,99933
2018-02-24T09:09:40.885Z,99920
2018-02-24T09:14:44.656Z,99910
2018-02-24T09:19:48.293Z,99911
2018-02-24T09:24:51.605Z,99892
2018-02-24T09:29:58.762Z,99888
2018-02-24T09:35:02.885Z,99899
2018-02-24T09:40:07.082Z,99899
2018-02-24T09:45:11.147Z,99891
2018-02-24T09:50:14.925Z,99893
2018-02-24T09:55:18.474Z,99894
2018-02-24T10:00:26.638Z,99885
2018-02-24T10:05:30.391Z,99886
2018-02-24T10:10:40.126Z,99881
2018-02-24T10:15:43.670Z,99875
2018-02-24T10:20:50.746Z,99874
2018-02-24T10:25:54.133Z,99870
2018-02-24T10:30:58.746Z,99870
2018-02-24T10:36:02.158Z,99855
2018-02-24T10:41:09.117Z,99852
2018-02-24T10:46:14.126Z,99844
2018-02-24T10:51:18.313Z,99848
2018-02-24T10:56:21.769Z,99844
2018-02-24T11:01:25.467Z,99836
2018-02-24T11:06:29.182Z,99830
2018-02-24T11:11:34.634Z,99832
2018-02-24T11:16:38.972Z,99823
2018-02-24T11:21:45.872Z,99819
2018-02-24T11:26:49.290Z,99823
2018-02-24T11:31:56.384Z,99821
2018-02-24T11:36:59.914Z,99822
2018-02-24T11:42:07.209Z,99813
2018-02-24T11:47:11.254Z,99806
2018-02-24T11:52:17.317Z,99806
2018-02-24T11:57:21.029Z,99803
2018-02-24T12:02:29.630Z,99800
2018-02-24T12:07:33.300Z,99797
2018-02-24T12:12:38.036Z,99795
2018-02-24T12:17:42.028Z,99792
2018-02-24T12:22:45.658Z,99783
2018-02-24T12:27:49.190Z,99778
2018-02-24T12:32:56.058Z,99773
2018-02-24T12:38:00.254Z,99781
2018-02-24T12:43:07.054Z,99776
2018-02-24T12:48:10.402Z,99769
2018-02-24T12:53:15.431Z,99765
2018-02-24T12:58:19.769Z,99750
2018-02-24T13:03:24.059Z,99751
2018-02-24T13:08:29.215Z,99746
2018-02-24T13:13:33.462Z,99740
2018-02-24T13:18:38.794Z,99732
2018-02-24T13:23:42.434Z,99731
2018-02-24T13:28:50.297Z,99724
2018-02-24T13:33:54.046Z,99716
2018-02-24T13:39:00.739Z,99716
2018-02-24T13:44:05.171Z,99709
2018-02-24T13:49:09.607Z,99709
2018-02-24T13:54:13.271Z,99700
2018-02-24T13:59:18.029Z,99695
2018-02-24T14:04:22.157Z,99693
2018-02-24T14:09:29.870Z,99692
2018-02-24T14:14:33.202Z,99679
2018-02-24T14:19:37.874Z,99669
2018-02-24T14:24:41.430Z,99679
2018-02-24T14:29:45.165Z,99668
2018-02-24T14:34:49.254Z,99664
2018-02-24T14:39:53.196Z,99660
2018-02-24T14:44:56.939Z,99656
2018-02-24T14:50:04.555Z,99662
2018-02-24T14:55:08.707Z,99668
2018-02-24T15:00:16.058Z,99663
2018-02-24T15:05:20.139Z,99672
2018-02-24T15:10:25.087Z,99673
2018-02-24T15:15:28.775Z,99678
2018-02-24T15:20:33.545Z,99679
2018-02-24T15:25:37.352Z,99674
2018-02-24T15:30:43.150Z,99676
2018-02-24T15:35:47.789Z,99679
2018-02-24T15:40:51.708Z,99672
2018-02-24T15:45:55.006Z,99683
2018-02-24T15:51:02.119Z,99687
2018-02-24T15:56:06.703Z,99688
2018-02-24T16:01:14.126Z,99691
2018-02-24T16:06:18.040Z,99695
2018-02-24T16:11:22.358Z,99698
2018-02-24T16:16:25.790Z,99700
2018-02-24T16:21:34.407Z,99702
2018-02-24T16:26:37.661Z,99697
2018-02-24T16:31:42.715Z,99701
2018-02-24T16:36:46.265Z,99706
2018-02-24T16:41:50.197Z,99715
2018-02-24T16:46:53.670Z,99717
2018-02-24T16:52:00.482Z,99712
2018-02-24T16:57:03.810Z,99697
2018-02-24T17:02:09.011Z,99694
2018-02-24T17:07:12.540Z,99692
2018-02-24T17:12:20.030Z,99689
2018-02-24T17:17:24.177Z,99697
2018-02-24T17:22:28.926Z,99707
2018-02-24T17:27:33.085Z,99708
2018-02-24T17:32:36.645Z,99719
2018-02-24T17:37:40.611Z,99717
2018-02-24T17:42:44.594Z,99716
2018-02-24T17:47:49.531Z,99711
2018-02-24T17:52:53.087Z,99719
2018-02-24T17:58:01.387Z,99723
2018-02-24T18:03:05.270Z,99731
2018-02-24T18:08:09.650Z,99736
2018-02-24T18:13:13.194Z,99733
2018-02-24T18:18:17.467Z,99748
2018-02-24T18:23:21.026Z,99737
2018-02-24T18:28:25.150Z,99739
2018-02-24T18:33:29.443Z,99733
2018-02-24T18:38:34.205Z,99737
2018-02-24T18:43:37.711Z,99735
2018-02-24T18:48:41.760Z,99740
2018-02-24T18:53:46.070Z,99741
2018-02-24T18:58:49.959Z,99741
2018-02-24T19:03:53.582Z,99743
2018-02-24T19:08:57.494Z,99741
2018-02-24T19:14:01.476Z,99742
2018-02-24T19:19:06.187Z,99736
2018-02-24T19:24:09.718Z,99733
2018-02-24T19:29:13.775Z,99747
2018-02-24T19:34:17.484Z,99744
2018-02-24T19:39:25.614Z,99746
2018-02-24T19:44:30.658Z,99748
2018-02-24T19:49:42.172Z,99763
2018-02-24T19:54:47.451Z,99771
2018-02-24T19:59:51.533Z,99763
2018-02-24T20:04:54.790Z,99768
2018-02-24T20:09:58.758Z,99758
2018-02-24T20:15:02.065Z,99767
2018-02-24T20:20:05.594Z,99773
2018-02-24T20:25:09.253Z,99775
2018-02-24T20:30:13.768Z,99778
2018-02-24T20:35:18.046Z,99785
2018-02-24T20:40:22.294Z,99786
2018-02-24T20:45:26.238Z,99797
2018-02-24T20:50:30.943Z,99801
2018-02-24T20:55:34.893Z,99802
2018-02-24T21:00:41.661Z,99807
2018-02-24T21:05:45.931Z,99798
2018-02-24T21:10:50.332Z,99815
2018-02-24T21:15:54.518Z,99821
2018-02-24T21:20:58.149Z,99827
2018-02-24T21:26:02.245Z,99837
2018-02-24T21:31:06.766Z,99848
2018-02-24T21:36:10.670Z,99858
2018-02-24T21:41:14.942Z,99852
2018-02-24T21:46:18.919Z,99861
2018-02-24T21:51:22.592Z,99872
2018-02-24T21:56:26.681Z,99873
2018-02-24T22:01:30.983Z,99864
2018-02-24T22:06:35.147Z,99877
2018-02-24T22:11:38.979Z,99878
2018-02-24T22:16:42.577Z,99881
2018-02-24T22:21:50.518Z,99885
2018-02-24T22:26:54.207Z,99893
2018-02-24T22:32:07.149Z,99902
2018-02-24T22:37:11.868Z,99901
2018-02-24T22:42:15.350Z,99903
2018-02-24T22:47:19.122Z,99902
2018-02-24T22:52:23.500Z,99907
2018-02-24T22:57:27.419Z,99921
2018-02-24T23:02:30.741Z,99920
2018-02-24T23:07:35.906Z,99936
2018-02-24T23:12:39.394Z,99934
2018-02-24T23:17:42.876Z,99940
2018-02-24T23:22:46.259Z,99945
2018-02-24T23:27:49.753Z,99944
2018-02-24T23:32:53.855Z,99947
2018-02-24T23:37:58.543Z,99950
2018-02-24T23:43:02.173Z,99965
2018-02-24T23:48:05.944Z,99961
2018-02-24T23:53:10.278Z,99972
2018-02-24T23:58:13.910Z,99962
